Latest Weather Observations for Kingfish B

IDV60801

Issued at 10:02 am EST Tuesday 26 May 2020 (issued every 10 minutes, with the page automatically refreshed every 10 minutes)

About weather observations | Map of weather stations | Latest weather observations for VIC | Other Formats
Station Details ID: 400139 Name: KINGFISH B (PLATFORM) Lat: -38.60 Lon: 148.19 Height: 31.4 m
Data from the previous 72 hours. | See also: Recent months for locations in Victoria
Date/Time
EST
Temp
°C
App
Temp
°C
Dew
Point
°C
Rel
Hum
%
Delta-T
°C
Wind Press
QNH
hPa
Press
MSL
hPa
Rain since
9am
mm
Dir  Spd
km/h
Gust
km/h
Spd
kts
Gust
kts
26/08:50am 15.0 13.5 10.4 74 2.4 NNW 9 13 5 7 1027.3 - -
26/08:40am 15.1 13.6 10.4 73 2.5 NW 9 11 5 6 1027.2 - -
26/08:30am 15.1 13.1 10.3 73 2.5 NW 11 15 6 8 1027.2 - -
26/08:10am 15.2 12.6 9.5 69 2.9 NNW 13 15 7 8 1027.2 - -
26/08:00am 14.9 11.6 8.2 64 3.4 NE 15 30 8 16 1027.1 - -
26/07:50am 14.8 10.6 8.1 64 3.4 ENE 20 30 11 16 1027.1 - -
26/07:40am 14.7 11.1 8.3 65 3.2 ENE 17 22 9 12 1027.1 - -
26/07:30am 14.7 10.7 8.4 66 3.2 ENE 19 26 10 14 1027.1 - -
26/07:20am 14.6 11.0 8.3 66 3.2 NE 17 22 9 12 1027.1 - -
26/07:10am 14.5 10.5 8.4 67 3.1 NE 19 24 10 13 1027.1 - -
26/07:00am 14.4 11.2 8.4 67 3.0 ENE 15 24 8 13 1027.1 - -
26/06:50am 14.3 11.1 8.4 67 3.0 ENE 15 28 8 15 1027.1 - -
26/06:40am 14.3 10.3 8.4 67 3.0 ENE 19 28 10 15 1027.0 - -
26/06:30am 14.3 11.1 8.3 67 3.0 ENE 15 24 8 13 1027.0 - -
26/06:20am 14.3 10.1 8.4 67 3.0 ENE 20 28 11 15 1026.8 - -
26/06:10am 14.3 9.8 8.4 67 3.0 ENE 22 32 12 17 1026.8 - -
26/06:00am 14.2 11.3 8.2 67 3.0 ENE 13 19 7 10 1026.7 - -
26/05:50am 14.2 10.0 8.2 67 3.0 ENE 20 32 11 17 1026.6 - -
26/05:40am 14.2 10.9 8.2 67 3.0 ENE 15 24 8 13 1026.5 - -
26/05:30am 14.1 10.5 8.3 68 2.9 ENE 17 22 9 12 1026.5 - -
26/05:20am 14.1 11.3 8.4 68 2.9 ENE 13 20 7 11 1026.4 - -
26/05:10am 14.0 10.3 8.1 67 2.9 ENE 17 22 9 12 1026.3 - -
26/05:00am 13.9 9.7 8.1 68 2.9 ENE 20 26 11 14 1026.3 - -
26/04:50am 13.9 9.7 8.4 69 2.8 E 20 26 11 14 1026.2 - -
26/04:40am 13.8 9.9 8.7 71 2.6 E 19 22 10 12 1026.2 - -
26/04:30am 13.7 9.3 8.9 73 2.4 E 22 28 12 15 1026.2 - -
26/04:20am 13.6 9.3 9.2 75 2.2 E 22 30 12 16 1026.1 - -
26/04:10am 13.6 9.9 9.4 76 2.1 ENE 19 24 10 13 1026.1 - -
26/04:00am 13.4 10.1 9.5 77 2.0 ENE 17 20 9 11 1026.1 - -
26/03:50am 13.2 9.5 9.6 79 1.8 E 19 24 10 13 1026.1 - -
26/03:40am 13.2 9.6 9.9 80 1.7 E 19 22 10 12 1026.1 - -
26/03:30am 13.0 10.2 9.9 81 1.6 E 15 20 8 11 1026.1 - -
26/03:20am 13.1 9.9 10.1 82 1.5 E 17 22 9 12 1026.2 - -
26/03:00am 12.7 9.9 10.0 84 1.4 E 15 19 8 10 1026.2 - -
26/02:50am 12.5 10.1 10.1 85 1.2 E 13 19 7 10 1026.2 - -
26/02:40am 12.2 9.8 9.9 86 1.2 E 13 19 7 10 1026.2 - -
26/02:30am 11.8 9.3 9.6 86 1.1 E 13 17 7 9 1026.3 - -
26/02:20am 12.1 7.1 9.6 85 1.3 ENE 26 32 14 17 1026.4 - -
26/02:10am 12.8 7.9 9.9 82 1.5 ENE 26 32 14 17 1026.3 - -
26/02:00am 12.7 8.9 9.8 82 1.5 ENE 20 28 11 15 1026.2 - -
26/01:50am 12.6 9.0 9.7 82 1.5 ENE 19 24 10 13 1026.3 - -
26/01:40am 12.4 9.5 9.5 82 1.5 ENE 15 22 8 12 1026.4 - -
26/01:30am 12.2 9.9 9.0 81 1.6 E 11 17 6 9 1026.5 - -
26/01:20am 12.4 7.9 8.7 78 1.8 E 22 35 12 19 1026.6 - -
26/01:10am 13.0 7.1 8.9 76 2.1 E 30 35 16 19 1026.4 - -
26/01:00am 13.2 8.4 8.9 75 2.2 E 24 30 13 16 1026.4 - -
26/12:50am 13.2 10.1 8.8 74 2.2 E 15 26 8 14 1026.4 - -
26/12:40am 13.2 11.2 8.8 74 2.2 E 9 15 5 8 1026.5 - -
26/12:30am 13.1 10.7 8.6 74 2.3 E 11 15 6 8 1026.7 - -
26/12:20am 13.1 10.3 8.5 73 2.3 E 13 22 7 12 1026.8 - -
26/12:10am 13.3 9.4 8.6 73 2.4 E 19 26 10 14 1026.8 - -
26/12:00am 13.3 11.3 8.6 73 2.4 ENE 9 15 5 8 1026.9 - -
 
Date/Time
EST
Temp
°C
App
Temp
°C
Dew
Point
°C
Rel
Hum
%
Delta-T
°C
Wind Press
QNH
hPa
Press
MSL
hPa
Rain since
9am
mm
Dir  Spd
km/h
Gust
km/h
Spd
kts
Gust
kts
25/10:50pm 13.6 9.3 7.9 68 2.8 E 20 28 11 15 1027.2 - -
25/10:40pm 13.6 9.4 7.6 67 3.0 ESE 19 24 10 13 1027.2 - -
25/10:30pm 13.7 8.9 7.4 65 3.1 ESE 22 26 12 14 1027.2 - -
25/10:20pm 13.7 9.3 7.5 66 3.0 ESE 20 28 11 15 1027.3 - -
25/10:10pm 13.6 8.9 7.6 67 3.0 ESE 22 28 12 15 1027.4 - -
25/10:00pm 13.7 9.6 7.8 67 2.9 SE 19 26 10 14 1027.4 - -
25/09:50pm 13.8 9.5 7.7 66 3.0 SE 20 24 11 13 1027.5 - -
25/09:40pm 13.8 9.0 7.5 66 3.1 ESE 22 24 12 13 1027.5 - -
25/09:30pm 13.8 9.6 7.4 65 3.1 ESE 19 24 10 13 1027.5 - -
25/09:20pm 13.8 10.3 7.2 64 3.2 SE 15 20 8 11 1027.5 - -
25/09:10pm 13.8 9.9 6.9 63 3.3 SE 17 22 9 12 1027.5 - -
25/09:00pm 13.7 9.7 6.7 62 3.4 SE 17 24 9 13 1027.5 - -
25/08:50pm 13.7 9.2 6.9 63 3.3 ESE 20 28 11 15 1027.4 - -
25/08:40pm 13.6 9.1 7.1 65 3.2 SE 20 30 11 16 1027.3 - -
25/08:30pm 13.7 9.3 7.2 65 3.2 ESE 20 26 11 14 1027.2 - -
25/08:20pm 13.7 9.2 7.0 64 3.3 ESE 20 24 11 13 1027.1 - -
25/08:10pm 13.7 9.2 7.1 64 3.2 SE 20 26 11 14 1027.1 - -
25/08:00pm 13.7 9.4 7.1 64 3.2 SE 19 26 10 14 1027.1 - -
25/07:50pm 13.7 9.9 7.5 66 3.0 SE 17 22 9 12 1027.0 - -
25/07:40pm 13.7 9.3 7.6 66 3.0 SE 20 26 11 14 1026.9 - -
25/07:30pm 13.7 8.9 7.4 65 3.1 SE 22 28 12 15 1026.8 - -
25/07:20pm 13.6 8.8 7.5 66 3.0 ESE 22 28 12 15 1026.7 - -
25/07:10pm 13.7 9.0 7.7 67 3.0 ESE 22 30 12 16 1026.6 - -
25/07:00pm 13.8 9.0 7.3 65 3.2 ESE 22 30 12 16 1026.6 - -
25/06:50pm 13.7 10.1 6.9 63 3.3 ESE 15 19 8 10 1026.6 - -
25/06:40pm 13.7 10.6 7.1 64 3.2 ESE 13 20 7 11 1026.6 - -
25/06:30pm 13.6 10.6 7.5 66 3.0 ESE 13 24 7 13 1026.6 - -
25/06:20pm 13.7 9.6 8.0 68 2.8 SE 19 24 10 13 1026.5 - -
25/06:10pm 13.9 9.6 7.7 66 3.1 SE 20 26 11 14 1026.4 - -
25/06:00pm 13.8 9.5 7.1 64 3.3 ESE 19 26 10 14 1026.2 - -
25/05:50pm 13.7 9.2 7.1 64 3.2 ESE 20 30 11 16 1026.2 - -
25/05:40pm 13.6 7.7 7.5 66 3.0 ESE 28 32 15 17 1026.1 - -
25/05:30pm 13.6 8.6 7.9 68 2.8 ESE 24 32 13 17 1026.1 - -
25/05:20pm 13.3 8.7 8.0 70 2.6 SE 22 32 12 17 1026.0 - -
25/05:10pm 13.3 8.7 8.2 71 2.5 SE 22 30 12 16 1026.0 - -
25/05:00pm 13.2 6.7 8.1 71 2.5 SE 32 37 17 20 1025.8 - -
25/04:50pm 13.5 6.8 8.3 71 2.6 ESE 33 39 18 21 1025.6 - -
25/04:40pm 13.7 8.4 8.3 70 2.7 SE 26 32 14 17 1025.6 - -
25/04:30pm 13.6 9.5 7.9 68 2.8 ESE 19 26 10 14 1025.6 - -
25/04:20pm 13.6 9.3 7.9 68 2.8 SE 20 26 11 14 1025.5 - -
25/04:10pm 13.6 9.3 7.8 68 2.9 SE 20 28 11 15 1025.5 - -
25/04:00pm 13.6 8.2 8.0 69 2.8 SE 26 32 14 17 1025.4 - -
25/03:50pm 13.7 8.7 8.0 68 2.8 SE 24 32 13 17 1025.3 - -
25/03:40pm 13.6 9.3 8.0 69 2.8 ESE 20 26 11 14 1025.3 - -
25/03:30pm 13.6 9.5 7.9 68 2.8 SE 19 24 10 13 1025.2 - -
25/03:20pm 13.5 9.3 7.6 67 2.9 ESE 19 24 10 13 1025.2 - -
25/03:10pm 13.5 9.1 7.4 66 3.0 ESE 20 28 11 15 1025.1 - -
25/03:00pm 13.4 9.0 7.3 66 3.0 ESE 20 30 11 16 1025.1 - -
25/02:50pm 13.4 7.5 7.6 68 2.8 ESE 28 35 15 19 1025.1 - -
25/02:40pm 13.5 9.4 8.5 72 2.5 ESE 20 33 11 18 1025.0 - -
25/02:30pm 13.4 8.6 8.7 73 2.4 ESE 24 30 13 16 1024.9 - -
25/02:20pm 13.4 9.0 9.0 75 2.2 SE 22 32 12 17 1025.0 - -
25/02:10pm 13.6 9.6 8.9 73 2.4 SSE 20 26 11 14 1025.1 - -
25/02:00pm 13.5 8.2 8.4 71 2.5 SE 26 32 14 17 1025.0 - -
25/01:50pm 13.4 8.8 8.0 70 2.7 SE 22 32 12 17 1025.0 - -
25/01:40pm 13.2 8.2 8.0 71 2.6 SE 24 33 13 18 1025.0 - -
25/01:30pm 13.2 6.5 8.3 72 2.4 ESE 33 37 18 20 1024.9 - -
25/01:20pm 13.4 7.7 8.5 72 2.5 ESE 28 35 15 19 1024.9 - -
25/01:10pm 13.3 9.1 8.2 71 2.5 SE 20 28 11 15 1025.1 - -
25/01:00pm 13.3 6.8 8.2 71 2.5 SE 32 39 17 21 1025.0 - -
25/12:50pm 13.4 8.5 8.3 71 2.5 SE 24 28 13 15 1025.0 - -
25/12:40pm 13.2 7.8 8.0 71 2.6 SE 26 35 14 19 1025.1 - -
25/12:30pm 13.5 6.8 8.0 69 2.7 SE 33 39 18 21 1025.1 - -
25/12:20pm 13.6 7.8 7.8 68 2.9 ESE 28 32 15 17 1025.0 - -
25/08:10am 11.7 6.3 10.8 94 0.5 SE 30 41 16 22 1025.5 - -
 
Date/Time
EST
Temp
°C
App
Temp
°C
Dew
Point
°C
Rel
Hum
%
Delta-T
°C
Wind Press
QNH
hPa
Press
MSL
hPa
Rain since
9am
mm
Dir  Spd
km/h
Gust
km/h
Spd
kts
Gust
kts
24/10:50pm 13.7 5.3 8.8 72 2.5 SSE 43 50 23 27 1023.7 - -
24/10:40pm 13.6 5.4 8.3 70 2.6 SSE 41 52 22 28 1023.3 - -
24/10:30pm 13.4 4.9 8.7 73 2.4 SSE 43 54 23 29 1023.4 - -
24/10:20pm 13.3 3.9 8.8 74 2.3 SSE 48 63 26 34 1023.4 - -
24/10:10pm 13.3 4.5 9.5 78 1.9 SSE 46 54 25 29 1023.2 - -
24/10:00pm 13.0 4.1 10.5 85 1.3 SSE 48 59 26 32 1023.0 - -
24/09:50pm 12.8 3.7 11.2 90 0.8 SSE 50 56 27 30 1023.0 - -
24/09:40pm 12.6 3.5 11.4 92 0.6 SSE 50 57 27 31 1022.8 - -
24/09:30pm 12.3 4.7 11.7 96 0.3 SSE 43 56 23 30 1022.7 - -
24/09:20pm 12.0 6.4 11.6 97 0.2 S 32 37 17 20 1022.8 - -
24/09:10pm 11.7 5.5 11.3 97 0.2 S 35 41 19 22 1022.9 - -
24/09:00pm 11.4 4.7 11.1 98 0.2 S 37 43 20 23 1022.9 - -
24/08:50pm 11.6 3.8 11.1 97 0.3 SSE 43 52 23 28 1023.0 - -
24/08:40pm 11.6 4.1 11.0 96 0.3 S 41 48 22 26 1022.9 - -
24/08:30pm 11.3 2.8 10.6 95 0.4 S 46 52 25 28 1023.2 - -
24/08:20pm 11.5 3.3 10.3 92 0.6 SSE 44 50 24 27 1023.0 - -
24/08:10pm 11.9 3.3 10.3 90 0.8 SSE 46 52 25 28 1022.9 - -
24/08:00pm 12.2 3.7 10.5 89 0.9 SSE 46 56 25 30 1022.8 - -
24/07:50pm 12.1 3.5 10.4 89 0.9 S 46 57 25 31 1022.8 - -
24/07:40pm 12.2 3.6 10.4 89 0.9 S 46 52 25 28 1022.8 - -
24/07:30pm 12.3 4.3 10.3 87 1.0 S 43 54 23 29 1022.8 - -
24/07:20pm 12.3 4.3 10.3 87 1.0 S 43 52 23 28 1022.7 - -
24/07:10pm 12.2 4.5 10.1 87 1.1 S 41 46 22 25 1022.7 - -
24/07:00pm 12.4 4.3 10.2 86 1.1 S 43 46 23 25 1022.8 - -
24/06:50pm 12.3 4.0 10.0 86 1.2 SSE 44 54 24 29 1022.8 - -
24/06:40pm 12.5 3.1 10.1 85 1.2 S 50 59 27 32 1022.8 - -
24/06:30pm 12.6 3.2 10.1 85 1.3 S 50 57 27 31 1022.8 - -
24/06:10pm 12.8 3.4 10.0 83 1.4 SSE 50 56 27 30 1022.7 - -
24/06:00pm 12.9 3.9 10.1 83 1.4 SSE 48 56 26 30 1022.6 - -
24/05:50pm 12.7 2.8 9.8 82 1.5 SSE 52 59 28 32 1022.5 - -
24/05:40pm 12.8 3.7 9.8 82 1.5 S 48 57 26 31 1022.3 - -
24/05:30pm 13.1 3.6 9.9 81 1.6 S 50 57 27 31 1022.3 - -
24/05:20pm 13.1 3.2 9.8 80 1.7 SSE 52 63 28 34 1022.1 - -
24/05:10pm 13.3 2.7 9.9 80 1.8 SSE 56 65 30 35 1022.1 - -
24/04:50pm 13.1 4.0 9.7 80 1.7 S 48 57 26 31 1021.9 - -
24/04:40pm 13.1 3.6 9.8 80 1.7 S 50 56 27 30 1021.9 - -
24/04:30pm 13.0 3.9 9.7 80 1.7 S 48 56 26 30 1021.7 - -
24/04:20pm 13.1 3.8 9.3 78 1.9 S 48 56 26 30 1021.6 - -
24/04:10pm 13.0 3.7 9.1 77 2.0 S 48 56 26 30 1021.3 - -
24/04:00pm 13.4 2.6 9.3 76 2.1 SSE 56 67 30 36 1021.4 - -
24/03:50pm 13.5 3.5 9.2 75 2.2 SSE 52 61 28 33 1021.2 - -
24/03:40pm 13.6 4.3 9.3 75 2.2 SSE 48 56 26 30 1021.0 - -
24/03:20pm 13.3 4.4 9.3 77 2.0 S 46 54 25 29 1021.0 - -
24/03:10pm 13.3 4.4 9.3 77 2.0 S 46 57 25 31 1021.0 - -
24/03:00pm 13.3 4.1 9.5 78 1.9 S 48 56 26 30 1021.0 - -
24/02:50pm 13.0 4.6 9.8 81 1.6 S 44 52 24 28 1020.7 - -
24/02:40pm 12.5 5.0 9.5 82 1.5 S 39 44 21 24 1020.6 - -
24/02:30pm 12.5 5.0 9.3 81 1.6 S 39 46 21 25 1020.5 - -
24/02:20pm 12.7 4.3 9.1 79 1.8 S 43 48 23 26 1020.6 - -
24/02:10pm 12.7 4.8 9.3 80 1.7 S 41 46 22 25 1020.5 - -
24/02:00pm 12.5 4.9 9.2 80 1.7 S 39 44 21 24 1020.4 - -
24/01:50pm 12.4 4.5 9.2 81 1.6 S 41 46 22 25 1020.4 - -
24/01:40pm 12.2 4.3 9.2 82 1.5 S 41 48 22 26 1020.4 - -
24/01:30pm 12.4 3.8 8.7 78 1.8 S 44 54 24 29 1020.5 - -
24/01:20pm 12.7 4.3 8.9 78 1.9 S 43 48 23 26 1020.3 - -
24/01:10pm 12.7 4.6 8.7 76 2.0 S 41 48 22 26 1020.3 - -
24/01:00pm 12.7 4.6 8.7 76 2.0 S 41 48 22 26 1020.2 - -
24/12:50pm 12.7 4.6 8.7 76 2.0 S 41 48 22 26 1020.2 - -
24/12:40pm 12.7 4.6 8.5 75 2.1 S 41 48 22 26 1020.2 - -
24/12:30pm 12.6 4.8 8.4 75 2.1 S 39 44 21 24 1020.2 - -
24/12:20pm 12.6 5.2 8.4 75 2.1 S 37 43 20 23 1020.1 - -
24/12:10pm 12.6 4.8 8.3 75 2.1 S 39 44 21 24 1020.2 - -
24/12:00pm 12.6 4.8 8.3 75 2.1 S 39 46 21 25 1020.3 - -
24/11:50am 12.6 4.8 8.2 74 2.2 S 39 44 21 24 1020.3 - -
24/11:40am 12.6 5.1 8.1 74 2.2 S 37 46 20 25 1020.3 - -
24/11:30am 12.6 5.1 8.0 73 2.3 S 37 43 20 23 1020.4 - -
24/11:20am 12.5 5.0 7.9 73 2.3 S 37 43 20 23 1020.4 - -
24/11:10am 12.5 5.3 7.7 72 2.3 S 35 43 19 23 1020.5 - -
24/11:00am 12.5 4.2 7.7 72 2.3 S 41 48 22 26 1020.6 - -
 
Date/Time
EST
Temp
°C
App
Temp
°C
Dew
Point
°C
Rel
Hum
%
Delta-T
°C
Wind Press
QNH
hPa
Press
MSL
hPa
Rain since
9am
mm
Dir  Spd
km/h
Gust
km/h
Spd
kts
Gust
kts
23/10:50pm 13.6 6.3 8.6 72 2.5 S 37 43 20 23 1016.6 - -
23/10:40pm 13.7 6.4 8.8 72 2.5 S 37 44 20 24 1016.6 - -
23/10:30pm 13.6 5.9 8.8 73 2.4 S 39 44 21 24 1016.6 - -
23/10:20pm 13.6 6.3 8.8 73 2.4 S 37 43 20 23 1016.5 - -
23/10:10pm 13.5 6.2 8.8 73 2.4 S 37 43 20 23 1016.5 - -
23/10:00pm 13.4 6.5 8.8 74 2.3 S 35 43 19 23 1016.5 - -
23/09:50pm 13.4 6.1 8.9 74 2.3 S 37 41 20 22 1016.5 - -
23/09:40pm 13.4 6.5 8.9 74 2.3 SSW 35 41 19 22 1016.3 - -
23/09:30pm 13.3 6.0 8.9 74 2.2 S 37 43 20 23 1016.4 - -
23/09:20pm 13.4 6.2 9.1 75 2.2 S 37 46 20 25 1016.4 - -
23/09:10pm 13.4 6.5 9.0 75 2.2 S 35 37 19 20 1016.3 - -
23/09:00pm 13.5 6.6 9.0 74 2.3 S 35 41 19 22 1016.2 - -
23/08:50pm 13.6 6.4 9.0 74 2.3 S 37 46 20 25 1016.3 - -
23/08:40pm 13.4 5.0 8.8 74 2.3 S 43 48 23 26 1016.4 - -
23/08:30pm 13.3 5.2 8.8 74 2.3 S 41 48 22 26 1016.3 - -
23/08:20pm 13.3 5.7 8.9 74 2.2 S 39 46 21 25 1016.2 - -
23/08:10pm 13.1 5.1 9.0 76 2.1 S 41 44 22 24 1016.2 - -
23/08:00pm 12.9 5.3 9.1 78 1.9 S 39 46 21 25 1016.2 - -
23/07:50pm 12.4 5.1 8.8 79 1.8 S 37 48 20 26 1016.1 - -
23/07:40pm 12.5 5.1 8.5 76 2.0 SSE 37 41 20 22 1016.0 - -
23/07:30pm 12.9 5.1 8.3 73 2.3 S 39 48 21 26 1016.0 - -
23/07:20pm 13.3 5.9 8.3 72 2.5 S 37 46 20 25 1015.8 - -
23/07:10pm 13.5 6.3 7.7 68 2.9 S 35 44 19 24 1015.7 - -
23/07:00pm 13.5 6.5 7.0 65 3.2 S 33 39 18 21 1015.5 - -
23/06:50pm 13.4 6.5 7.1 65 3.1 S 33 43 18 23 1015.5 - -
23/06:40pm 13.3 6.2 6.6 64 3.2 S 33 41 18 22 1015.5 - -
23/06:30pm 13.3 6.3 6.7 64 3.2 S 33 39 18 21 1015.5 - -
23/06:20pm 13.3 5.9 6.8 64 3.1 S 35 43 19 23 1015.4 - -
23/06:10pm 13.2 6.6 7.8 70 2.7 S 32 41 17 22 1015.3 - -
23/06:00pm 13.1 6.4 7.5 69 2.7 SSW 32 35 17 19 1015.3 - -
23/05:50pm 13.1 6.3 7.1 67 2.9 SSW 32 37 17 20 1015.2 - -
23/05:40pm 13.1 6.7 7.0 66 3.0 SSW 30 37 16 20 1015.1 - -
23/05:30pm 13.1 6.7 6.8 65 3.0 SSW 30 39 16 21 1015.0 - -
23/05:20pm 13.0 6.5 6.3 64 3.2 SSW 30 33 16 18 1015.0 - -
23/05:10pm 13.1 6.6 6.4 64 3.2 SSW 30 35 16 19 1014.9 - -
23/05:00pm 13.0 6.4 6.1 63 3.3 SSW 30 33 16 18 1014.6 - -
23/04:50pm 13.0 6.3 5.8 61 3.4 SSW 30 33 16 18 1014.5 - -
23/04:40pm 13.0 6.8 6.0 62 3.3 SSW 28 32 15 17 1014.4 - -
23/04:30pm 13.0 6.8 6.3 64 3.2 SSW 28 32 15 17 1014.4 - -
23/04:20pm 12.8 5.9 6.5 65 3.0 SSW 32 37 17 20 1014.5 - -
23/04:10pm 12.8 5.0 6.8 67 2.9 S 37 43 20 23 1014.6 - -
23/04:00pm 12.8 5.8 6.8 67 2.9 S 33 41 18 22 1014.5 - -
23/03:50pm 12.8 5.8 7.0 68 2.8 SSW 33 37 18 20 1014.4 - -
23/03:40pm 12.9 6.0 7.1 68 2.8 SSW 33 39 18 21 1014.4 - -
23/03:30pm 12.9 5.6 7.0 67 2.8 SSW 35 43 19 23 1014.4 - -
23/03:20pm 12.9 5.9 7.0 67 2.8 SSW 33 39 18 21 1014.3 - -
23/03:10pm 13.0 5.7 7.0 67 2.9 SSW 35 41 19 22 1014.3 - -
23/03:00pm 13.0 5.3 7.0 67 2.9 SSW 37 41 20 22 1014.2 - -
23/02:50pm 12.9 5.6 7.1 68 2.8 SSW 35 39 19 21 1014.2 - -
23/02:40pm 13.0 5.7 7.2 68 2.8 SSW 35 41 19 22 1014.3 - -
23/02:30pm 12.9 5.2 7.1 68 2.8 SSW 37 43 20 23 1014.2 - -
23/02:20pm 13.0 5.3 7.2 68 2.8 SSW 37 43 20 23 1014.2 - -
23/02:10pm 12.9 5.6 7.0 67 2.8 S 35 39 19 21 1014.2 - -
23/02:00pm 12.9 5.6 7.0 67 2.8 S 35 41 19 22 1014.2 - -
23/01:50pm 12.9 5.2 7.0 67 2.8 S 37 41 20 22 1014.3 - -
23/01:40pm 13.0 5.6 6.8 66 3.0 S 35 41 19 22 1014.3 - -
23/01:30pm 13.0 5.7 7.0 67 2.9 SSW 35 41 19 22 1014.2 - -
23/01:20pm 12.9 5.1 6.8 66 2.9 SSW 37 43 20 23 1014.2 - -
23/01:10pm 12.9 5.1 6.8 66 2.9 SSW 37 44 20 24 1014.2 - -
23/01:00pm 13.0 5.2 6.8 66 3.0 SSW 37 43 20 23 1014.1 - -
23/12:50pm 12.9 5.1 6.7 66 3.0 SSW 37 43 20 23 1014.2 - -
23/12:40pm 13.0 5.3 6.9 66 2.9 SSW 37 41 20 22 1014.3 - -
23/12:30pm 13.0 5.7 7.1 67 2.9 SSW 35 44 19 24 1014.4 - -
23/12:20pm 13.0 5.7 7.4 69 2.7 SSW 35 43 19 23 1014.3 - -
23/12:10pm 13.0 5.7 7.4 69 2.7 SSW 35 41 19 22 1014.3 - -
23/12:00pm 12.9 5.6 7.4 69 2.7 SSW 35 41 19 22 1014.3 - -
23/11:50am 12.9 5.2 7.2 68 2.8 SSW 37 43 20 23 1014.5 - -
23/11:40am 13.0 5.0 7.3 68 2.8 SSW 39 44 21 24 1014.8 - -
23/11:30am 13.0 5.3 7.2 68 2.8 SSW 37 43 20 23 1014.8 - -
23/11:20am 13.0 4.9 7.0 67 2.9 SSW 39 44 21 24 1015.0 - -
23/11:10am 12.9 4.8 6.8 66 2.9 SSW 39 44 21 24 1015.2 - -
23/11:00am 12.9 5.1 6.7 66 3.0 SSW 37 43 20 23 1015.3 - -

Other formats

Comma delimited format used in spreadsheet applications
http://www.bom.gov.au/fwo/IDV60801/IDV60801.55039.axf

JavaScript Object Notation format (JSON) in row-major order
http://www.bom.gov.au/fwo/IDV60801/IDV60801.55039.json

Data quality

Most of these data are generated automatically and are frequently updated. Quality checks on data are not normally performed. It is possible for incorrect values to appear. Refer to information at About Latest Weather Observations and please check the disclaimer before using these data.